sensor_id;sensor_type;location;lat;lon;timestamp;P1;durP1;ratioP1;P2;durP2;ratioP2
72639;SDS011;60683;51.730;8.762;2022-12-22T00:02:01;3.33;;;1.52;;
72639;SDS011;60683;51.730;8.762;2022-12-22T00:04:47;2.90;;;1.60;;
72639;SDS011;60683;51.730;8.762;2022-12-22T00:07:33;4.85;;;2.08;;
72639;SDS011;60683;51.730;8.762;2022-12-22T00:10:17;4.45;;;1.80;;
72639;SDS011;60683;51.730;8.762;2022-12-22T00:13:02;5.47;;;2.53;;
72639;SDS011;60683;51.730;8.762;2022-12-22T00:15:49;3.75;;;1.65;;
72639;SDS011;60683;51.730;8.762;2022-12-22T00:18:34;5.43;;;2.47;;
72639;SDS011;60683;51.730;8.762;2022-12-22T00:21:18;5.00;;;2.08;;
72639;SDS011;60683;51.730;8.762;2022-12-22T00:24:04;4.90;;;1.83;;
72639;SDS011;60683;51.730;8.762;2022-12-22T00:26:48;3.40;;;1.73;;
72639;SDS011;60683;51.730;8.762;2022-12-22T00:29:34;3.85;;;1.60;;
72639;SDS011;60683;51.730;8.762;2022-12-22T00:32:21;3.05;;;1.65;;
72639;SDS011;60683;51.730;8.762;2022-12-22T00:35:10;4.03;;;1.90;;
72639;SDS011;60683;51.730;8.762;2022-12-22T00:37:56;5.00;;;2.03;;
72639;SDS011;60683;51.730;8.762;2022-12-22T00:40:41;4.30;;;1.77;;
72639;SDS011;60683;51.730;8.762;2022-12-22T00:43:26;4.40;;;1.88;;
72639;SDS011;60683;51.730;8.762;2022-12-22T00:46:11;3.95;;;2.22;;
72639;SDS011;60683;51.730;8.762;2022-12-22T00:48:59;4.88;;;2.88;;
72639;SDS011;60683;51.730;8.762;2022-12-22T00:51:44;4.63;;;1.98;;
72639;SDS011;60683;51.730;8.762;2022-12-22T00:54:29;3.08;;;1.30;;
72639;SDS011;60683;51.730;8.762;2022-12-22T00:57:15;3.75;;;1.60;;
72639;SDS011;60683;51.730;8.762;2022-12-22T01:00:01;2.90;;;1.42;;
72639;SDS011;60683;51.730;8.762;2022-12-22T01:02:47;2.97;;;1.50;;
72639;SDS011;60683;51.730;8.762;2022-12-22T01:05:33;2.35;;;1.20;;
72639;SDS011;60683;51.730;8.762;2022-12-22T01:08:18;2.55;;;1.08;;
72639;SDS011;60683;51.730;8.762;2022-12-22T01:11:02;3.67;;;1.25;;
72639;SDS011;60683;51.730;8.762;2022-12-22T01:13:48;5.03;;;1.60;;
72639;SDS011;60683;51.730;8.762;2022-12-22T01:16:32;3.72;;;1.40;;
72639;SDS011;60683;51.730;8.762;2022-12-22T01:19:17;2.78;;;1.40;;
72639;SDS011;60683;51.730;8.762;2022-12-22T01:22:06;2.28;;;1.17;;
72639;SDS011;60683;51.730;8.762;2022-12-22T01:24:51;3.00;;;1.30;;
72639;SDS011;60683;51.730;8.762;2022-12-22T01:27:35;3.40;;;1.30;;
72639;SDS011;60683;51.730;8.762;2022-12-22T01:30:20;3.60;;;1.10;;
72639;SDS011;60683;51.730;8.762;2022-12-22T01:33:06;2.38;;;0.95;;
72639;SDS011;60683;51.730;8.762;2022-12-22T01:35:52;2.47;;;1.20;;
72639;SDS011;60683;51.730;8.762;2022-12-22T01:38:38;2.55;;;0.90;;
72639;SDS011;60683;51.730;8.762;2022-12-22T01:41:23;2.78;;;1.40;;
72639;SDS011;60683;51.730;8.762;2022-12-22T01:44:10;2.05;;;0.85;;
72639;SDS011;60683;51.730;8.762;2022-12-22T01:50:15;2.15;;;1.02;;
72639;SDS011;60683;51.730;8.762;2022-12-22T01:53:03;2.42;;;1.10;;
72639;SDS011;60683;51.730;8.762;2022-12-22T01:55:51;3.60;;;1.33;;
72639;SDS011;60683;51.730;8.762;2022-12-22T01:58:39;2.30;;;1.00;;
72639;SDS011;60683;51.730;8.762;2022-12-22T02:01:25;3.58;;;1.70;;
72639;SDS011;60683;51.730;8.762;2022-12-22T02:04:11;3.35;;;1.10;;
72639;SDS011;60683;51.730;8.762;2022-12-22T02:06:56;2.55;;;1.08;;
72639;SDS011;60683;51.730;8.762;2022-12-22T02:09:48;3.70;;;1.27;;
72639;SDS011;60683;51.730;8.762;2022-12-22T02:12:42;2.60;;;1.13;;
72639;SDS011;60683;51.730;8.762;2022-12-22T02:15:30;3.33;;;1.10;;
72639;SDS011;60683;51.730;8.762;2022-12-22T02:18:17;2.38;;;1.42;;
72639;SDS011;60683;51.730;8.762;2022-12-22T02:21:08;3.28;;;1.40;;
72639;SDS011;60683;51.730;8.762;2022-12-22T02:24:00;2.50;;;1.10;;
72639;SDS011;60683;51.730;8.762;2022-12-22T02:26:55;3.08;;;1.33;;
72639;SDS011;60683;51.730;8.762;2022-12-22T02:29:46;2.90;;;1.30;;
72639;SDS011;60683;51.730;8.762;2022-12-22T02:32:32;2.72;;;1.17;;
72639;SDS011;60683;51.730;8.762;2022-12-22T02:35:17;2.65;;;1.30;;
72639;SDS011;60683;51.730;8.762;2022-12-22T02:38:05;3.08;;;1.48;;
72639;SDS011;60683;51.730;8.762;2022-12-22T02:40:56;2.85;;;1.40;;
72639;SDS011;60683;51.730;8.762;2022-12-22T02:43:51;3.25;;;1.20;;
72639;SDS011;60683;51.730;8.762;2022-12-22T02:46:47;2.35;;;1.00;;
72639;SDS011;60683;51.730;8.762;2022-12-22T02:49:39;2.45;;;0.95;;
72639;SDS011;60683;51.730;8.762;2022-12-22T02:52:29;3.00;;;1.17;;
72639;SDS011;60683;51.730;8.762;2022-12-22T02:55:15;2.90;;;1.05;;
72639;SDS011;60683;51.730;8.762;2022-12-22T02:58:00;3.30;;;1.20;;
72639;SDS011;60683;51.730;8.762;2022-12-22T03:00:46;2.83;;;1.25;;
72639;SDS011;60683;51.730;8.762;2022-12-22T03:03:31;3.05;;;1.17;;
72639;SDS011;60683;51.730;8.762;2022-12-22T03:06:16;3.75;;;1.48;;
72639;SDS011;60683;51.730;8.762;2022-12-22T03:09:01;3.05;;;1.67;;
72639;SDS011;60683;51.730;8.762;2022-12-22T03:11:46;2.95;;;1.20;;
72639;SDS011;60683;51.730;8.762;2022-12-22T03:14:31;3.03;;;1.48;;
72639;SDS011;60683;51.730;8.762;2022-12-22T03:17:17;2.83;;;1.30;;
72639;SDS011;60683;51.730;8.762;2022-12-22T03:20:02;2.88;;;1.20;;
72639;SDS011;60683;51.730;8.762;2022-12-22T03:22:47;2.63;;;1.17;;
72639;SDS011;60683;51.730;8.762;2022-12-22T03:25:32;3.30;;;1.30;;
72639;SDS011;60683;51.730;8.762;2022-12-22T03:28:19;2.88;;;1.23;;
72639;SDS011;60683;51.730;8.762;2022-12-22T03:30:51;2.00;;;0.85;;
72639;SDS011;60683;51.730;8.762;2022-12-22T03:33:21;3.28;;;1.63;;
72639;SDS011;60683;51.730;8.762;2022-12-22T03:35:49;3.58;;;1.50;;
72639;SDS011;60683;51.730;8.762;2022-12-22T03:38:16;2.85;;;1.50;;
72639;SDS011;60683;51.730;8.762;2022-12-22T03:40:44;3.30;;;1.33;;
72639;SDS011;60683;51.730;8.762;2022-12-22T03:43:11;2.88;;;1.20;;
72639;SDS011;60683;51.730;8.762;2022-12-22T03:45:57;3.17;;;1.38;;
72639;SDS011;60683;51.730;8.762;2022-12-22T03:48:45;2.65;;;1.00;;
72639;SDS011;60683;51.730;8.762;2022-12-22T03:51:33;4.07;;;1.55;;
72639;SDS011;60683;51.730;8.762;2022-12-22T03:54:01;5.20;;;2.10;;
72639;SDS011;60683;51.730;8.762;2022-12-22T03:56:28;4.13;;;1.80;;
72639;SDS011;60683;51.730;8.762;2022-12-22T03:58:56;3.10;;;1.23;;
72639;SDS011;60683;51.730;8.762;2022-12-22T04:01:23;3.70;;;1.52;;
72639;SDS011;60683;51.730;8.762;2022-12-22T04:03:52;4.57;;;2.00;;
72639;SDS011;60683;51.730;8.762;2022-12-22T04:06:20;4.32;;;2.15;;
72639;SDS011;60683;51.730;8.762;2022-12-22T04:08:47;3.40;;;1.70;;
72639;SDS011;60683;51.730;8.762;2022-12-22T04:11:15;4.50;;;1.45;;
72639;SDS011;60683;51.730;8.762;2022-12-22T04:14:00;3.90;;;1.80;;
72639;SDS011;60683;51.730;8.762;2022-12-22T04:16:28;4.03;;;1.70;;
72639;SDS011;60683;51.730;8.762;2022-12-22T04:18:58;3.58;;;1.70;;
72639;SDS011;60683;51.730;8.762;2022-12-22T04:21:25;3.92;;;1.63;;
72639;SDS011;60683;51.730;8.762;2022-12-22T04:23:53;4.60;;;1.70;;
72639;SDS011;60683;51.730;8.762;2022-12-22T04:26:21;3.50;;;1.65;;
72639;SDS011;60683;51.730;8.762;2022-12-22T04:28:49;2.35;;;1.00;;
72639;SDS011;60683;51.730;8.762;2022-12-22T04:31:17;3.72;;;1.60;;
72639;SDS011;60683;51.730;8.762;2022-12-22T04:33:45;3.17;;;1.48;;
72639;SDS011;60683;51.730;8.762;2022-12-22T04:36:14;3.80;;;1.38;;
72639;SDS011;60683;51.730;8.762;2022-12-22T04:38:42;3.55;;;1.75;;
72639;SDS011;60683;51.730;8.762;2022-12-22T04:41:09;2.90;;;1.20;;
72639;SDS011;60683;51.730;8.762;2022-12-22T04:43:37;3.30;;;1.42;;
72639;SDS011;60683;51.730;8.762;2022-12-22T04:46:05;3.60;;;1.52;;
72639;SDS011;60683;51.730;8.762;2022-12-22T04:48:33;3.50;;;1.40;;
72639;SDS011;60683;51.730;8.762;2022-12-22T04:51:00;4.25;;;1.20;;
72639;SDS011;60683;51.730;8.762;2022-12-22T04:53:29;3.90;;;1.70;;
72639;SDS011;60683;51.730;8.762;2022-12-22T04:55:57;3.33;;;1.50;;
72639;SDS011;60683;51.730;8.762;2022-12-22T04:58:26;3.90;;;1.63;;
72639;SDS011;60683;51.730;8.762;2022-12-22T05:00:54;3.85;;;1.58;;
72639;SDS011;60683;51.730;8.762;2022-12-22T05:03:22;3.47;;;1.20;;
72639;SDS011;60683;51.730;8.762;2022-12-22T05:05:50;3.78;;;1.98;;
72639;SDS011;60683;51.730;8.762;2022-12-22T05:08:18;3.25;;;1.40;;
72639;SDS011;60683;51.730;8.762;2022-12-22T05:10:46;3.72;;;1.60;;
72639;SDS011;60683;51.730;8.762;2022-12-22T05:13:14;4.43;;;1.75;;
72639;SDS011;60683;51.730;8.762;2022-12-22T05:15:41;2.83;;;1.30;;
72639;SDS011;60683;51.730;8.762;2022-12-22T05:18:09;3.38;;;1.45;;
72639;SDS011;60683;51.730;8.762;2022-12-22T05:20:37;4.18;;;1.63;;
72639;SDS011;60683;51.730;8.762;2022-12-22T05:23:05;3.35;;;1.33;;
72639;SDS011;60683;51.730;8.762;2022-12-22T05:25:32;3.58;;;1.50;;
72639;SDS011;60683;51.730;8.762;2022-12-22T05:28:01;3.25;;;1.55;;
72639;SDS011;60683;51.730;8.762;2022-12-22T05:30:28;3.15;;;1.30;;
72639;SDS011;60683;51.730;8.762;2022-12-22T05:32:56;3.00;;;1.42;;
72639;SDS011;60683;51.730;8.762;2022-12-22T05:35:23;3.40;;;1.40;;
72639;SDS011;60683;51.730;8.762;2022-12-22T05:37:50;3.10;;;1.10;;
72639;SDS011;60683;51.730;8.762;2022-12-22T05:40:18;3.10;;;1.40;;
72639;SDS011;60683;51.730;8.762;2022-12-22T05:42:45;3.10;;;1.10;;
72639;SDS011;60683;51.730;8.762;2022-12-22T05:45:14;4.13;;;1.42;;
72639;SDS011;60683;51.730;8.762;2022-12-22T05:47:44;3.40;;;1.63;;
72639;SDS011;60683;51.730;8.762;2022-12-22T05:50:12;3.13;;;1.30;;
72639;SDS011;60683;51.730;8.762;2022-12-22T05:52:41;3.15;;;1.10;;
72639;SDS011;60683;51.730;8.762;2022-12-22T05:55:09;3.35;;;1.67;;
72639;SDS011;60683;51.730;8.762;2022-12-22T05:57:37;3.42;;;1.25;;
72639;SDS011;60683;51.730;8.762;2022-12-22T06:00:05;4.78;;;1.27;;
72639;SDS011;60683;51.730;8.762;2022-12-22T06:02:36;2.30;;;1.13;;
72639;SDS011;60683;51.730;8.762;2022-12-22T06:05:03;4.05;;;1.20;;
72639;SDS011;60683;51.730;8.762;2022-12-22T06:07:31;4.60;;;1.83;;
72639;SDS011;60683;51.730;8.762;2022-12-22T06:09:59;4.00;;;1.67;;
72639;SDS011;60683;51.730;8.762;2022-12-22T06:12:26;3.15;;;1.65;;
72639;SDS011;60683;51.730;8.762;2022-12-22T06:14:54;3.38;;;1.30;;
72639;SDS011;60683;51.730;8.762;2022-12-22T06:17:21;3.38;;;1.42;;
72639;SDS011;60683;51.730;8.762;2022-12-22T06:19:50;2.95;;;1.05;;
72639;SDS011;60683;51.730;8.762;2022-12-22T06:22:17;4.30;;;1.23;;
72639;SDS011;60683;51.730;8.762;2022-12-22T06:24:45;3.28;;;1.10;;
72639;SDS011;60683;51.730;8.762;2022-12-22T06:27:12;3.25;;;1.13;;
72639;SDS011;60683;51.730;8.762;2022-12-22T06:29:39;2.10;;;0.98;;
72639;SDS011;60683;51.730;8.762;2022-12-22T06:32:07;3.83;;;1.33;;
72639;SDS011;60683;51.730;8.762;2022-12-22T06:34:34;3.00;;;1.25;;
72639;SDS011;60683;51.730;8.762;2022-12-22T06:37:03;3.42;;;1.20;;
72639;SDS011;60683;51.730;8.762;2022-12-22T06:39:30;3.08;;;1.10;;
72639;SDS011;60683;51.730;8.762;2022-12-22T06:41:58;3.72;;;1.20;;
72639;SDS011;60683;51.730;8.762;2022-12-22T06:44:43;2.40;;;1.13;;
72639;SDS011;60683;51.730;8.762;2022-12-22T06:47:10;2.78;;;1.33;;
72639;SDS011;60683;51.730;8.762;2022-12-22T06:49:38;2.10;;;0.82;;
72639;SDS011;60683;51.730;8.762;2022-12-22T06:52:07;4.07;;;1.20;;
72639;SDS011;60683;51.730;8.762;2022-12-22T06:54:34;2.45;;;0.98;;
72639;SDS011;60683;51.730;8.762;2022-12-22T06:57:02;2.55;;;0.90;;
72639;SDS011;60683;51.730;8.762;2022-12-22T06:59:29;2.28;;;1.08;;
72639;SDS011;60683;51.730;8.762;2022-12-22T07:01:57;2.30;;;0.85;;
72639;SDS011;60683;51.730;8.762;2022-12-22T07:04:24;2.92;;;1.27;;
72639;SDS011;60683;51.730;8.762;2022-12-22T07:06:52;2.50;;;1.10;;
72639;SDS011;60683;51.730;8.762;2022-12-22T07:09:21;2.03;;;0.85;;
72639;SDS011;60683;51.730;8.762;2022-12-22T07:11:48;2.88;;;1.10;;
72639;SDS011;60683;51.730;8.762;2022-12-22T07:14:16;2.88;;;1.25;;
72639;SDS011;60683;51.730;8.762;2022-12-22T07:16:43;4.95;;;2.13;;
72639;SDS011;60683;51.730;8.762;2022-12-22T07:19:11;6.28;;;2.67;;
72639;SDS011;60683;51.730;8.762;2022-12-22T07:21:39;6.40;;;2.25;;
72639;SDS011;60683;51.730;8.762;2022-12-22T07:24:06;10.40;;;4.07;;
72639;SDS011;60683;51.730;8.762;2022-12-22T07:26:36;9.57;;;3.10;;
72639;SDS011;60683;51.730;8.762;2022-12-22T07:29:04;8.18;;;2.72;;
72639;SDS011;60683;51.730;8.762;2022-12-22T07:31:31;13.05;;;4.25;;
72639;SDS011;60683;51.730;8.762;2022-12-22T07:33:59;7.35;;;2.42;;
72639;SDS011;60683;51.730;8.762;2022-12-22T07:36:26;6.13;;;2.25;;
72639;SDS011;60683;51.730;8.762;2022-12-22T07:38:54;3.83;;;1.70;;
72639;SDS011;60683;51.730;8.762;2022-12-22T07:41:21;4.82;;;1.80;;
72639;SDS011;60683;51.730;8.762;2022-12-22T07:44:07;3.30;;;1.70;;
72639;SDS011;60683;51.730;8.762;2022-12-22T07:46:35;3.53;;;1.40;;
72639;SDS011;60683;51.730;8.762;2022-12-22T07:49:04;3.10;;;1.27;;
72639;SDS011;60683;51.730;8.762;2022-12-22T07:51:50;3.10;;;1.40;;
72639;SDS011;60683;51.730;8.762;2022-12-22T07:54:17;3.22;;;1.23;;
72639;SDS011;60683;51.730;8.762;2022-12-22T07:56:45;4.93;;;1.60;;
72639;SDS011;60683;51.730;8.762;2022-12-22T07:59:14;2.60;;;1.13;;
72639;SDS011;60683;51.730;8.762;2022-12-22T08:01:42;3.08;;;1.20;;
72639;SDS011;60683;51.730;8.762;2022-12-22T08:04:10;2.58;;;1.10;;
72639;SDS011;60683;51.730;8.762;2022-12-22T08:06:38;3.85;;;1.50;;
72639;SDS011;60683;51.730;8.762;2022-12-22T08:09:06;3.10;;;1.25;;
72639;SDS011;60683;51.730;8.762;2022-12-22T08:11:34;2.78;;;1.30;;
72639;SDS011;60683;51.730;8.762;2022-12-22T08:14:01;3.83;;;1.55;;
72639;SDS011;60683;51.730;8.762;2022-12-22T08:16:30;2.70;;;1.40;;
72639;SDS011;60683;51.730;8.762;2022-12-22T08:18:58;3.45;;;1.20;;
72639;SDS011;60683;51.730;8.762;2022-12-22T08:21:25;2.42;;;1.10;;
72639;SDS011;60683;51.730;8.762;2022-12-22T08:23:52;2.90;;;1.30;;
72639;SDS011;60683;51.730;8.762;2022-12-22T08:26:21;3.50;;;1.52;;
72639;SDS011;60683;51.730;8.762;2022-12-22T08:28:51;4.10;;;2.08;;
72639;SDS011;60683;51.730;8.762;2022-12-22T08:31:19;4.95;;;2.55;;
72639;SDS011;60683;51.730;8.762;2022-12-22T08:33:48;5.40;;;3.33;;
72639;SDS011;60683;51.730;8.762;2022-12-22T08:36:16;4.20;;;2.50;;
72639;SDS011;60683;51.730;8.762;2022-12-22T08:38:44;6.03;;;3.40;;
72639;SDS011;60683;51.730;8.762;2022-12-22T08:41:13;7.07;;;3.92;;
72639;SDS011;60683;51.730;8.762;2022-12-22T08:44:01;6.10;;;3.53;;
72639;SDS011;60683;51.730;8.762;2022-12-22T08:46:29;9.10;;;4.03;;
72639;SDS011;60683;51.730;8.762;2022-12-22T08:48:58;8.55;;;3.90;;
72639;SDS011;60683;51.730;8.762;2022-12-22T08:51:25;8.38;;;3.97;;
72639;SDS011;60683;51.730;8.762;2022-12-22T08:53:52;8.35;;;4.13;;
72639;SDS011;60683;51.730;8.762;2022-12-22T08:56:20;7.40;;;3.95;;
72639;SDS011;60683;51.730;8.762;2022-12-22T08:58:47;5.80;;;3.58;;
72639;SDS011;60683;51.730;8.762;2022-12-22T09:01:17;5.72;;;3.25;;
72639;SDS011;60683;51.730;8.762;2022-12-22T09:03:48;6.35;;;3.50;;
72639;SDS011;60683;51.730;8.762;2022-12-22T09:06:18;4.97;;;2.65;;
72639;SDS011;60683;51.730;8.762;2022-12-22T09:08:46;6.75;;;3.10;;
72639;SDS011;60683;51.730;8.762;2022-12-22T09:11:14;5.50;;;3.08;;
72639;SDS011;60683;51.730;8.762;2022-12-22T09:13:41;7.95;;;2.88;;
72639;SDS011;60683;51.730;8.762;2022-12-22T09:16:09;5.90;;;2.80;;
72639;SDS011;60683;51.730;8.762;2022-12-22T09:18:36;4.70;;;2.50;;
72639;SDS011;60683;51.730;8.762;2022-12-22T09:21:04;5.18;;;2.53;;
72639;SDS011;60683;51.730;8.762;2022-12-22T09:23:33;6.93;;;3.28;;
72639;SDS011;60683;51.730;8.762;2022-12-22T09:26:05;5.68;;;2.80;;
72639;SDS011;60683;51.730;8.762;2022-12-22T09:28:33;6.75;;;3.20;;
72639;SDS011;60683;51.730;8.762;2022-12-22T09:31:01;7.15;;;3.55;;
72639;SDS011;60683;51.730;8.762;2022-12-22T09:33:29;5.97;;;3.60;;
72639;SDS011;60683;51.730;8.762;2022-12-22T09:35:57;6.63;;;3.80;;
72639;SDS011;60683;51.730;8.762;2022-12-22T09:38:25;8.32;;;3.30;;
72639;SDS011;60683;51.730;8.762;2022-12-22T09:40:54;6.15;;;3.30;;
72639;SDS011;60683;51.730;8.762;2022-12-22T09:43:25;5.70;;;2.40;;
72639;SDS011;60683;51.730;8.762;2022-12-22T09:45:54;5.68;;;2.60;;
72639;SDS011;60683;51.730;8.762;2022-12-22T09:48:22;6.43;;;3.38;;
72639;SDS011;60683;51.730;8.762;2022-12-22T09:50:49;7.57;;;3.05;;
72639;SDS011;60683;51.730;8.762;2022-12-22T09:53:17;8.77;;;4.07;;
72639;SDS011;60683;51.730;8.762;2022-12-22T09:55:46;9.90;;;4.80;;
72639;SDS011;60683;51.730;8.762;2022-12-22T09:58:20;12.95;;;5.68;;
72639;SDS011;60683;51.730;8.762;2022-12-22T10:00:52;12.88;;;5.20;;
72639;SDS011;60683;51.730;8.762;2022-12-22T10:03:30;12.52;;;6.13;;
72639;SDS011;60683;51.730;8.762;2022-12-22T10:06:03;18.95;;;7.60;;
72639;SDS011;60683;51.730;8.762;2022-12-22T10:08:33;14.98;;;7.28;;
72639;SDS011;60683;51.730;8.762;2022-12-22T10:11:02;18.77;;;7.53;;
72639;SDS011;60683;51.730;8.762;2022-12-22T10:13:33;17.80;;;7.07;;
72639;SDS011;60683;51.730;8.762;2022-12-22T10:16:01;17.00;;;7.38;;
72639;SDS011;60683;51.730;8.762;2022-12-22T10:18:47;21.08;;;8.02;;
72639;SDS011;60683;51.730;8.762;2022-12-22T10:21:21;17.33;;;6.47;;
72639;SDS011;60683;51.730;8.762;2022-12-22T10:23:49;17.45;;;6.85;;
72639;SDS011;60683;51.730;8.762;2022-12-22T10:26:19;15.05;;;7.05;;
72639;SDS011;60683;51.730;8.762;2022-12-22T10:28:49;17.63;;;7.85;;
72639;SDS011;60683;51.730;8.762;2022-12-22T10:31:20;15.32;;;7.32;;
72639;SDS011;60683;51.730;8.762;2022-12-22T10:33:49;17.02;;;6.60;;
72639;SDS011;60683;51.730;8.762;2022-12-22T10:36:19;19.20;;;7.30;;
72639;SDS011;60683;51.730;8.762;2022-12-22T10:38:56;17.33;;;7.53;;
72639;SDS011;60683;51.730;8.762;2022-12-22T10:41:26;22.05;;;8.73;;
72639;SDS011;60683;51.730;8.762;2022-12-22T10:43:56;19.42;;;8.02;;
72639;SDS011;60683;51.730;8.762;2022-12-22T10:46:29;20.52;;;7.93;;
72639;SDS011;60683;51.730;8.762;2022-12-22T10:49:08;24.25;;;9.63;;
72639;SDS011;60683;51.730;8.762;2022-12-22T10:51:39;22.23;;;8.30;;
72639;SDS011;60683;51.730;8.762;2022-12-22T10:54:09;18.85;;;8.48;;
72639;SDS011;60683;51.730;8.762;2022-12-22T10:56:57;20.70;;;8.27;;
72639;SDS011;60683;51.730;8.762;2022-12-22T10:59:32;21.27;;;9.43;;
72639;SDS011;60683;51.730;8.762;2022-12-22T11:04:45;20.80;;;9.52;;
72639;SDS011;60683;51.730;8.762;2022-12-22T11:07:13;20.98;;;9.20;;
72639;SDS011;60683;51.730;8.762;2022-12-22T11:09:41;24.08;;;10.75;;
72639;SDS011;60683;51.730;8.762;2022-12-22T11:12:10;18.80;;;8.43;;
72639;SDS011;60683;51.730;8.762;2022-12-22T11:14:44;22.52;;;9.63;;
72639;SDS011;60683;51.730;8.762;2022-12-22T11:17:15;24.45;;;9.80;;
72639;SDS011;60683;51.730;8.762;2022-12-22T11:19:49;23.73;;;10.27;;
72639;SDS011;60683;51.730;8.762;2022-12-22T11:22:27;22.20;;;8.07;;
72639;SDS011;60683;51.730;8.762;2022-12-22T11:25:04;23.63;;;8.30;;
72639;SDS011;60683;51.730;8.762;2022-12-22T11:27:42;17.75;;;7.93;;
72639;SDS011;60683;51.730;8.762;2022-12-22T11:30:17;23.73;;;7.57;;
72639;SDS011;60683;51.730;8.762;2022-12-22T11:32:48;16.38;;;6.63;;
72639;SDS011;60683;51.730;8.762;2022-12-22T11:35:29;16.52;;;7.72;;
72639;SDS011;60683;51.730;8.762;2022-12-22T11:38:05;18.52;;;7.32;;
72639;SDS011;60683;51.730;8.762;2022-12-22T11:40:40;17.33;;;6.05;;
72639;SDS011;60683;51.730;8.762;2022-12-22T11:43:16;19.30;;;7.45;;
72639;SDS011;60683;51.730;8.762;2022-12-22T11:45:56;19.63;;;6.80;;
72639;SDS011;60683;51.730;8.762;2022-12-22T11:48:32;22.48;;;7.80;;
72639;SDS011;60683;51.730;8.762;2022-12-22T11:51:12;14.43;;;7.05;;
72639;SDS011;60683;51.730;8.762;2022-12-22T11:53:49;18.95;;;8.02;;
72639;SDS011;60683;51.730;8.762;2022-12-22T11:56:25;22.25;;;8.13;;
72639;SDS011;60683;51.730;8.762;2022-12-22T11:58:58;21.13;;;8.52;;
72639;SDS011;60683;51.730;8.762;2022-12-22T12:04:19;22.98;;;7.97;;
72639;SDS011;60683;51.730;8.762;2022-12-22T12:07:04;23.50;;;8.07;;
72639;SDS011;60683;51.730;8.762;2022-12-22T12:09:44;23.55;;;8.00;;
72639;SDS011;60683;51.730;8.762;2022-12-22T12:12:18;24.40;;;8.55;;
72639;SDS011;60683;51.730;8.762;2022-12-22T12:14:52;23.90;;;8.02;;
72639;SDS011;60683;51.730;8.762;2022-12-22T12:17:31;14.35;;;6.13;;
72639;SDS011;60683;51.730;8.762;2022-12-22T12:20:10;19.65;;;7.78;;
72639;SDS011;60683;51.730;8.762;2022-12-22T12:22:48;21.13;;;9.73;;
72639;SDS011;60683;51.730;8.762;2022-12-22T12:25:24;17.10;;;7.20;;
72639;SDS011;60683;51.730;8.762;2022-12-22T12:30:51;18.50;;;7.43;;
72639;SDS011;60683;51.730;8.762;2022-12-22T12:33:25;25.35;;;10.07;;
72639;SDS011;60683;51.730;8.762;2022-12-22T12:35:58;27.90;;;9.10;;
72639;SDS011;60683;51.730;8.762;2022-12-22T12:38:33;20.42;;;8.80;;
72639;SDS011;60683;51.730;8.762;2022-12-22T12:41:08;24.95;;;8.55;;
72639;SDS011;60683;51.730;8.762;2022-12-22T12:43:42;21.05;;;8.80;;
72639;SDS011;60683;51.730;8.762;2022-12-22T12:52:16;24.05;;;10.52;;
72639;SDS011;60683;51.730;8.762;2022-12-22T12:54:44;26.58;;;10.07;;
72639;SDS011;60683;51.730;8.762;2022-12-22T12:57:23;24.17;;;11.43;;
72639;SDS011;60683;51.730;8.762;2022-12-22T12:59:52;22.45;;;9.85;;
72639;SDS011;60683;51.730;8.762;2022-12-22T13:02:34;26.27;;;9.25;;
72639;SDS011;60683;51.730;8.762;2022-12-22T13:05:17;25.83;;;10.02;;
72639;SDS011;60683;51.730;8.762;2022-12-22T13:13:57;18.10;;;6.95;;
72639;SDS011;60683;51.730;8.762;2022-12-22T13:16:29;16.00;;;7.25;;
72639;SDS011;60683;51.730;8.762;2022-12-22T13:19:01;22.70;;;10.27;;
72639;SDS011;60683;51.730;8.762;2022-12-22T13:21:37;15.05;;;6.95;;
72639;SDS011;60683;51.730;8.762;2022-12-22T13:24:12;19.40;;;8.25;;
72639;SDS011;60683;51.730;8.762;2022-12-22T13:26:44;19.80;;;7.65;;
72639;SDS011;60683;51.730;8.762;2022-12-22T13:29:16;15.90;;;6.07;;
72639;SDS011;60683;51.730;8.762;2022-12-22T13:31:46;13.25;;;5.68;;
72639;SDS011;60683;51.730;8.762;2022-12-22T13:34:23;10.23;;;4.90;;
72639;SDS011;60683;51.730;8.762;2022-12-22T13:36:59;11.38;;;4.70;;
72639;SDS011;60683;51.730;8.762;2022-12-22T13:39:30;11.32;;;4.78;;
72639;SDS011;60683;51.730;8.762;2022-12-22T13:41:57;11.20;;;4.80;;
72639;SDS011;60683;51.730;8.762;2022-12-22T13:44:27;8.63;;;3.58;;
72639;SDS011;60683;51.730;8.762;2022-12-22T13:47:00;16.23;;;5.55;;
72639;SDS011;60683;51.730;8.762;2022-12-22T13:49:28;18.17;;;6.22;;
72639;SDS011;60683;51.730;8.762;2022-12-22T13:51:56;15.18;;;6.00;;
72639;SDS011;60683;51.730;8.762;2022-12-22T13:54:25;14.65;;;6.30;;
72639;SDS011;60683;51.730;8.762;2022-12-22T13:56:58;14.13;;;6.40;;
72639;SDS011;60683;51.730;8.762;2022-12-22T13:59:27;17.58;;;7.22;;
72639;SDS011;60683;51.730;8.762;2022-12-22T14:01:56;15.43;;;7.45;;
72639;SDS011;60683;51.730;8.762;2022-12-22T14:04:25;16.80;;;6.53;;
72639;SDS011;60683;51.730;8.762;2022-12-22T14:06:53;12.20;;;6.30;;
72639;SDS011;60683;51.730;8.762;2022-12-22T14:09:21;17.65;;;7.50;;
72639;SDS011;60683;51.730;8.762;2022-12-22T14:11:51;13.68;;;6.13;;
72639;SDS011;60683;51.730;8.762;2022-12-22T14:14:22;13.00;;;6.72;;
72639;SDS011;60683;51.730;8.762;2022-12-22T14:16:53;18.42;;;8.38;;
72639;SDS011;60683;51.730;8.762;2022-12-22T14:19:21;15.70;;;7.55;;
72639;SDS011;60683;51.730;8.762;2022-12-22T14:21:50;16.65;;;7.80;;
72639;SDS011;60683;51.730;8.762;2022-12-22T14:24:24;17.95;;;7.95;;
72639;SDS011;60683;51.730;8.762;2022-12-22T14:26:55;14.88;;;7.43;;
72639;SDS011;60683;51.730;8.762;2022-12-22T14:29:24;16.45;;;7.07;;
72639;SDS011;60683;51.730;8.762;2022-12-22T14:31:53;18.13;;;8.10;;
72639;SDS011;60683;51.730;8.762;2022-12-22T14:34:24;14.93;;;7.97;;
72639;SDS011;60683;51.730;8.762;2022-12-22T14:36:53;17.33;;;7.30;;
72639;SDS011;60683;51.730;8.762;2022-12-22T14:39:20;22.88;;;9.32;;
72639;SDS011;60683;51.730;8.762;2022-12-22T14:41:50;14.15;;;6.32;;
72639;SDS011;60683;51.730;8.762;2022-12-22T14:44:21;21.95;;;9.48;;
72639;SDS011;60683;51.730;8.762;2022-12-22T14:49:43;16.75;;;8.00;;
72639;SDS011;60683;51.730;8.762;2022-12-22T14:52:17;23.25;;;10.27;;
72639;SDS011;60683;51.730;8.762;2022-12-22T14:54:47;19.92;;;9.68;;
72639;SDS011;60683;51.730;8.762;2022-12-22T14:57:17;24.27;;;9.95;;
72639;SDS011;60683;51.730;8.762;2022-12-22T14:59:58;26.90;;;11.82;;
72639;SDS011;60683;51.730;8.762;2022-12-22T15:02:29;25.58;;;10.63;;
72639;SDS011;60683;51.730;8.762;2022-12-22T15:05:07;26.52;;;10.80;;
72639;SDS011;60683;51.730;8.762;2022-12-22T15:07:43;20.52;;;9.00;;
72639;SDS011;60683;51.730;8.762;2022-12-22T15:10:11;23.63;;;11.57;;
72639;SDS011;60683;51.730;8.762;2022-12-22T15:12:39;29.20;;;11.98;;
72639;SDS011;60683;51.730;8.762;2022-12-22T15:15:12;25.10;;;11.85;;
72639;SDS011;60683;51.730;8.762;2022-12-22T15:17:42;23.13;;;9.85;;
72639;SDS011;60683;51.730;8.762;2022-12-22T15:20:14;26.73;;;11.52;;
72639;SDS011;60683;51.730;8.762;2022-12-22T15:22:44;24.38;;;10.52;;
72639;SDS011;60683;51.730;8.762;2022-12-22T15:25:12;24.33;;;10.13;;
72639;SDS011;60683;51.730;8.762;2022-12-22T15:27:40;22.10;;;10.25;;
72639;SDS011;60683;51.730;8.762;2022-12-22T15:30:08;19.50;;;9.40;;
72639;SDS011;60683;51.730;8.762;2022-12-22T15:32:38;24.55;;;11.07;;
72639;SDS011;60683;51.730;8.762;2022-12-22T15:35:10;25.17;;;12.02;;
72639;SDS011;60683;51.730;8.762;2022-12-22T15:37:42;17.10;;;8.02;;
72639;SDS011;60683;51.730;8.762;2022-12-22T15:40:16;28.02;;;11.85;;
72639;SDS011;60683;51.730;8.762;2022-12-22T15:42:45;24.55;;;10.90;;
72639;SDS011;60683;51.730;8.762;2022-12-22T15:45:12;24.67;;;10.80;;
72639;SDS011;60683;51.730;8.762;2022-12-22T15:47:42;25.70;;;12.35;;
72639;SDS011;60683;51.730;8.762;2022-12-22T15:50:13;25.75;;;12.32;;